Time;durP1;ratioP1;P1;durP2;ratioP2;P2;SDS_P1;SDS_P2;PMS_P1;PMS_P2;Temp;Humidity;BMP_temperature;BMP_pressure;BME280_temperature;BME280_humidity;BME280_pressure;Samples;Min_cycle;Max_cycle;Signal;HPM_P1;HPM_P2
2022/09/20 00:01:09;;;;;;;1.30;0.80;;;;;;;;;;5063517;28;20025;-86
2022/09/20 00:03:36;;;;;;;4.03;0.88;;;;;;;;;;5063313;28;20059;-86
2022/09/20 00:06:03;;;;;;;0.85;0.70;;;;;;;;;;5063242;28;20019;-86
2022/09/20 00:08:29;;;;;;;1.50;0.90;;;;;;;;;;5065105;28;20033;-86
2022/09/20 00:11:05;;;;;;;1.02;0.63;;;;;;;;;;5064070;28;20037;-86
2022/09/20 00:13:32;;;;;;;1.58;0.90;;;;;;;;;;5064094;28;20039;-86
2022/09/20 00:15:58;;;;;;;1.02;0.60;;;;;;;;;;5064233;28;20109;-86
2022/09/20 00:18:25;;;;;;;1.60;0.70;;;;;;;;;;5063716;28;20025;-86
2022/09/20 00:20:51;;;;;;;1.50;0.70;;;;;;;;;;5063434;28;20025;-86
2022/09/20 00:23:17;;;;;;;1.17;0.70;;;;;;;;;;5063076;28;20040;-85
2022/09/20 00:25:43;;;;;;;0.95;0.55;;;;;;;;;;5060904;28;20116;-86
2022/09/20 00:28:09;;;;;;;2.20;0.77;;;;;;;;;;5063445;28;20033;-86
2022/09/20 00:30:36;;;;;;;1.02;0.70;;;;;;;;;;5061396;28;20029;-86
2022/09/20 00:33:02;;;;;;;1.05;0.60;;;;;;;;;;5062780;28;20040;-86
2022/09/20 00:35:28;;;;;;;1.52;0.80;;;;;;;;;;5062877;28;20033;-86
2022/09/20 00:37:54;;;;;;;1.67;0.68;;;;;;;;;;5062411;28;20064;-86
2022/09/20 00:40:23;;;;;;;1.13;0.50;;;;;;;;;;5063001;28;20032;-86
2022/09/20 00:42:49;;;;;;;1.63;0.50;;;;;;;;;;5062744;28;20048;-86
2022/09/20 00:45:29;;;;;;;2.10;0.77;;;;;;;;;;5061266;28;20037;-86
2022/09/20 00:47:58;;;;;;;0.95;0.60;;;;;;;;;;5061794;28;20389;-86
2022/09/20 00:50:39;;;;;;;2.30;0.80;;;;;;;;;;5044996;28;20040;-86
2022/09/20 00:53:14;;;;;;;1.75;0.88;;;;;;;;;;5061509;28;20055;-86
2022/09/20 00:55:45;;;;;;;2.22;0.60;;;;;;;;;;5063642;28;20033;-87
2022/09/20 00:58:11;;;;;;;1.17;0.68;;;;;;;;;;5061950;28;20116;-87
2022/09/20 01:00:38;;;;;;;1.67;0.70;;;;;;;;;;5061632;28;20071;-87
2022/09/20 01:03:07;;;;;;;0.60;0.60;;;;;;;;;;5044537;28;20044;-86
2022/09/20 01:05:34;;;;;;;0.60;0.57;;;;;;;;;;5061817;28;20064;-86
2022/09/20 01:08:00;;;;;;;1.67;0.68;;;;;;;;;;5064005;28;20139;-86
2022/09/20 01:10:25;;;;;;;1.83;0.70;;;;;;;;;;5066042;28;20067;-87
2022/09/20 01:12:53;;;;;;;0.70;0.60;;;;;;;;;;5066261;28;20024;-86
2022/09/20 01:15:20;;;;;;;1.13;0.60;;;;;;;;;;5066367;28;20032;-86
2022/09/20 01:17:51;;;;;;;1.33;0.80;;;;;;;;;;5065656;28;20028;-86
2022/09/20 01:20:35;;;;;;;1.33;0.70;;;;;;;;;;5066864;28;20032;-87
2022/09/20 01:23:19;;;;;;;1.33;0.70;;;;;;;;;;5066729;28;20097;-86
2022/09/20 01:26:22;;;;;;;1.92;0.80;;;;;;;;;;5065808;28;20029;-86
2022/09/20 01:28:56;;;;;;;1.58;0.65;;;;;;;;;;5067485;28;20036;-87
2022/09/20 01:31:30;;;;;;;1.98;0.60;;;;;;;;;;5066636;28;20057;-86
2022/09/20 01:34:20;;;;;;;1.30;0.80;;;;;;;;;;5065610;28;20116;-85
2022/09/20 01:36:53;;;;;;;1.30;0.70;;;;;;;;;;5066633;28;20158;-85
2022/09/20 01:39:44;;;;;;;2.15;0.60;;;;;;;;;;5067077;28;20491;-85
2022/09/20 01:42:12;;;;;;;2.78;0.70;;;;;;;;;;5065820;28;20063;-86
2022/09/20 01:44:59;;;;;;;1.27;0.65;;;;;;;;;;5066680;28;20037;-86
2022/09/20 01:47:35;;;;;;;1.05;0.70;;;;;;;;;;5066718;28;20079;-86
2022/09/20 01:50:13;;;;;;;1.67;0.60;;;;;;;;;;5065307;28;20435;-86
2022/09/20 01:53:06;;;;;;;3.80;1.70;;;;;;;;;;5066034;28;20045;-86
2022/09/20 01:55:38;;;;;;;1.20;0.80;;;;;;;;;;5065562;28;20496;-86
2022/09/20 01:58:16;;;;;;;2.42;0.80;;;;;;;;;;5065920;28;20029;-86
2022/09/20 02:00:41;;;;;;;1.65;0.88;;;;;;;;;;5066169;28;20032;-86
2022/09/20 02:03:34;;;;;;;1.20;0.70;;;;;;;;;;5066232;28;20024;-86
2022/09/20 02:06:28;;;;;;;1.43;0.77;;;;;;;;;;5065232;28;20017;-86
2022/09/20 02:09:37;;;;;;;1.33;0.80;;;;;;;;;;5065169;28;20275;-86
2022/09/20 02:12:22;;;;;;;2.10;0.70;;;;;;;;;;5042905;28;20362;-86
2022/09/20 02:15:25;;;;;;;2.03;0.90;;;;;;;;;;5044091;28;20040;-86
2022/09/20 02:17:56;;;;;;;1.13;0.63;;;;;;;;;;5062852;28;20037;-86
2022/09/20 02:21:00;;;;;;;2.30;0.80;;;;;;;;;;5065102;28;20033;-85
2022/09/20 02:23:55;;;;;;;1.88;0.70;;;;;;;;;;5064914;28;20021;-86
2022/09/20 02:26:29;;;;;;;0.98;0.70;;;;;;;;;;5065944;28;20025;-86
2022/09/20 02:28:58;;;;;;;1.40;0.77;;;;;;;;;;5064800;28;20037;-86
2022/09/20 02:31:48;;;;;;;1.83;0.70;;;;;;;;;;5066283;28;20063;-86
2022/09/20 02:34:32;;;;;;;1.20;0.70;;;;;;;;;;5063400;28;20051;-86
2022/09/20 02:37:28;;;;;;;0.95;0.60;;;;;;;;;;5064842;28;20025;-86
2022/09/20 02:40:15;;;;;;;3.15;0.70;;;;;;;;;;5065226;28;20119;-86
2022/09/20 02:43:03;;;;;;;4.00;0.80;;;;;;;;;;5065366;28;20087;-87
2022/09/20 02:45:49;;;;;;;0.90;0.55;;;;;;;;;;5065603;28;20029;-86
2022/09/20 02:48:21;;;;;;;3.38;0.75;;;;;;;;;;5063786;28;20033;-86
2022/09/20 02:51:02;;;;;;;0.98;0.80;;;;;;;;;;5065778;28;20048;-86
2022/09/20 02:54:02;;;;;;;2.03;1.00;;;;;;;;;;5064250;28;20029;-86
2022/09/20 02:56:44;;;;;;;1.25;0.70;;;;;;;;;;5065146;28;20390;-85
2022/09/20 02:59:22;;;;;;;1.13;0.80;;;;;;;;;;5063262;28;20066;-85
2022/09/20 03:02:05;;;;;;;1.65;0.80;;;;;;;;;;5063628;28;20405;-86
2022/09/20 03:04:33;;;;;;;1.42;0.80;;;;;;;;;;5063966;28;20059;-86
2022/09/20 03:07:19;;;;;;;1.60;0.70;;;;;;;;;;5065584;28;20092;-86
2022/09/20 03:09:59;;;;;;;1.30;0.77;;;;;;;;;;5063916;28;20040;-88
2022/09/20 03:12:43;;;;;;;1.45;0.70;;;;;;;;;;5064249;28;20036;-87
2022/09/20 03:15:21;;;;;;;1.02;0.80;;;;;;;;;;5046290;28;20025;-88
2022/09/20 03:18:29;;;;;;;1.73;0.82;;;;;;;;;;5046400;28;20039;-87
2022/09/20 03:21:17;;;;;;;3.08;0.60;;;;;;;;;;5044165;28;20076;-87
2022/09/20 03:24:01;;;;;;;1.48;0.70;;;;;;;;;;5063067;28;20047;-87
2022/09/20 03:26:41;;;;;;;1.08;0.63;;;;;;;;;;5064249;28;20086;-86
2022/09/20 03:29:24;;;;;;;1.80;0.80;;;;;;;;;;5061382;28;20033;-87
2022/09/20 03:31:59;;;;;;;2.70;0.80;;;;;;;;;;5061763;28;20587;-86
2022/09/20 03:34:44;;;;;;;5.30;0.80;;;;;;;;;;5061515;28;20171;-87
2022/09/20 03:37:25;;;;;;;3.35;0.77;;;;;;;;;;5063277;28;20155;-87
2022/09/20 03:40:09;;;;;;;1.15;0.80;;;;;;;;;;5061899;28;20048;-87
2022/09/20 03:42:45;;;;;;;2.58;0.80;;;;;;;;;;5061111;28;20579;-87
2022/09/20 03:45:32;;;;;;;1.55;0.80;;;;;;;;;;5062184;28;20024;-87
2022/09/20 03:48:41;;;;;;;1.42;0.90;;;;;;;;;;5062940;28;20032;-87
2022/09/20 03:51:27;;;;;;;1.70;0.90;;;;;;;;;;5062759;28;20035;-87
2022/09/20 03:53:55;;;;;;;1.35;0.70;;;;;;;;;;5063108;28;20115;-87
2022/09/20 03:56:57;;;;;;;1.58;0.70;;;;;;;;;;5061179;28;20025;-86
2022/09/20 04:00:03;;;;;;;1.25;0.70;;;;;;;;;;5063569;28;20029;-86
2022/09/20 04:02:59;;;;;;;1.77;0.77;;;;;;;;;;5061418;28;20083;-86
2022/09/20 04:05:34;;;;;;;0.90;0.60;;;;;;;;;;5062584;28;20036;-86
2022/09/20 04:08:17;;;;;;;3.20;0.77;;;;;;;;;;5062891;28;20115;-86
2022/09/20 04:11:01;;;;;;;;;;;;;;;;;;5063175;28;20037;-85
2022/09/20 04:13:41;;;;;;;1.35;0.80;;;;;;;;;;5063265;28;19908;-87
2022/09/20 04:16:12;;;;;;;1.77;1.10;;;;;;;;;;5063159;28;20021;-87
2022/09/20 04:18:47;;;;;;;2.90;1.33;;;;;;;;;;5062895;28;20032;-87
2022/09/20 04:21:22;;;;;;;4.18;1.10;;;;;;;;;;5062026;28;20048;-87
2022/09/20 04:23:57;;;;;;;3.35;1.30;;;;;;;;;;5063073;28;20059;-87
2022/09/20 04:26:29;;;;;;;2.97;0.95;;;;;;;;;;5063760;28;20393;-87
2022/09/20 04:29:07;;;;;;;2.20;0.77;;;;;;;;;;5062505;28;20033;-87
2022/09/20 04:31:41;;;;;;;1.38;0.70;;;;;;;;;;5061874;28;20115;-87
2022/09/20 04:34:16;;;;;;;1.65;0.80;;;;;;;;;;5062632;28;20051;-87
2022/09/20 04:37:05;;;;;;;1.20;0.80;;;;;;;;;;5062395;28;20021;-87
2022/09/20 04:39:46;;;;;;;1.73;0.82;;;;;;;;;;5060864;28;20055;-87
2022/09/20 04:42:24;;;;;;;1.83;0.90;;;;;;;;;;5064052;28;20024;-87
2022/09/20 04:45:27;;;;;;;1.17;0.70;;;;;;;;;;5065147;28;20058;-88
2022/09/20 04:48:30;;;;;;;1.50;0.67;;;;;;;;;;5064741;28;20067;-87
2022/09/20 04:51:18;;;;;;;1.30;0.70;;;;;;;;;;5067070;28;20029;-87
2022/09/20 04:54:04;;;;;;;1.38;0.70;;;;;;;;;;5066170;28;20041;-87
2022/09/20 04:56:45;;;;;;;1.33;0.70;;;;;;;;;;5066487;28;20047;-87
2022/09/20 04:59:30;;;;;;;0.73;0.60;;;;;;;;;;5066203;28;20025;-88
2022/09/20 05:02:27;;;;;;;2.83;1.10;;;;;;;;;;5064675;28;20029;-87
2022/09/20 05:05:23;;;;;;;2.65;1.10;;;;;;;;;;5064779;28;20608;-86
2022/09/20 05:08:17;;;;;;;2.60;1.20;;;;;;;;;;5064738;28;20059;-88
2022/09/20 05:10:43;;;;;;;2.15;1.40;;;;;;;;;;5065055;28;20045;-87
2022/09/20 05:13:22;;;;;;;3.53;1.65;;;;;;;;;;5064531;28;20052;-87
2022/09/20 05:16:01;;;;;;;2.67;1.10;;;;;;;;;;5063591;28;20028;-87
2022/09/20 05:19:23;;;;;;;5.50;1.40;;;;;;;;;;5066105;28;20033;-88
2022/09/20 05:22:01;;;;;;;1.83;0.90;;;;;;;;;;5027014;28;20391;-87
2022/09/20 05:24:57;;;;;;;1.58;1.02;;;;;;;;;;5010016;28;20125;-87
2022/09/20 05:27:34;;;;;;;2.33;0.90;;;;;;;;;;5059327;28;20033;-87
2022/09/20 05:30:28;;;;;;;2.15;0.80;;;;;;;;;;5066367;28;20394;-88
2022/09/20 05:33:12;;;;;;;1.58;0.82;;;;;;;;;;5066062;28;20033;-87
2022/09/20 05:35:42;;;;;;;1.08;0.80;;;;;;;;;;5042502;28;20033;-87
2022/09/20 05:38:28;;;;;;;1.70;1.08;;;;;;;;;;5026778;28;20021;-87
2022/09/20 05:41:23;;;;;;;2.42;1.00;;;;;;;;;;5027498;28;20041;-87
2022/09/20 05:44:01;;;;;;;4.13;1.13;;;;;;;;;;5043510;28;20091;-86
2022/09/20 05:47:04;;;;;;;2.15;1.20;;;;;;;;;;5044253;28;20109;-87
2022/09/20 05:49:58;;;;;;;1.85;1.08;;;;;;;;;;5043442;28;20052;-86
2022/09/20 05:53:00;;;;;;;2.28;1.25;;;;;;;;;;5040811;28;20033;-86
2022/09/20 05:55:50;;;;;;;1.77;1.10;;;;;;;;;;5039495;28;20055;-85
2022/09/20 05:58:22;;;;;;;1.92;1.00;;;;;;;;;;5039449;28;20124;-86
2022/09/20 06:00:55;;;;;;;3.90;1.20;;;;;;;;;;5039449;28;20056;-87
2022/09/20 06:03:31;;;;;;;1.65;1.10;;;;;;;;;;5041070;28;20065;-87
2022/09/20 06:06:16;;;;;;;3.53;1.13;;;;;;;;;;5038631;28;20116;-87
2022/09/20 06:09:19;;;;;;;2.17;1.10;;;;;;;;;;5042370;28;20057;-85
2022/09/20 06:11:57;;;;;;;2.25;1.00;;;;;;;;;;5037733;28;20663;-86
2022/09/20 06:14:38;;;;;;;2.67;1.20;;;;;;;;;;5036190;28;20030;-86
2022/09/20 06:17:33;;;;;;;2.35;1.05;;;;;;;;;;5038107;28;20045;-85
2022/09/20 06:19:59;;;;;;;2.95;1.38;;;;;;;;;;5040273;28;20044;-86
2022/09/20 06:22:33;;;;;;;3.75;1.23;;;;;;;;;;5040851;28;20029;-86
2022/09/20 06:25:01;;;;;;;4.75;2.45;;;;;;;;;;5039646;28;20116;-86
2022/09/20 06:27:36;;;;;;;2.42;0.95;;;;;;;;;;5040283;28;20108;-86
2022/09/20 06:30:05;;;;;;;3.92;1.50;;;;;;;;;;5038165;28;20037;-88
2022/09/20 06:32:31;;;;;;;4.90;2.83;;;;;;;;;;5039254;28;20429;-86
2022/09/20 06:34:57;;;;;;;2.95;1.30;;;;;;;;;;5047129;28;20052;-86
2022/09/20 06:43:26;;;;;;;3.53;2.17;;;;;;;;;;5047787;28;20051;-87
2022/09/20 06:45:52;;;;;;;4.03;1.80;;;;;;;;;;5046997;28;20025;-86
2022/09/20 06:48:18;;;;;;;2.92;1.50;;;;;;;;;;5048222;28;20095;-85
2022/09/20 06:50:44;;;;;;;1.75;1.20;;;;;;;;;;5060375;28;20036;-85
2022/09/20 06:53:16;;;;;;;1.95;1.30;;;;;;;;;;5060656;28;20359;-86
2022/09/20 06:55:46;;;;;;;2.00;1.30;;;;;;;;;;5042956;28;20467;-85
2022/09/20 06:58:11;;;;;;;3.47;1.80;;;;;;;;;;5070590;28;20040;-84
2022/09/20 07:00:38;;;;;;;2.85;1.80;;;;;;;;;;5068940;28;20021;-86
2022/09/20 07:03:04;;;;;;;1.98;1.30;;;;;;;;;;5064669;28;20390;-86
2022/09/20 07:05:30;;;;;;;2.25;1.30;;;;;;;;;;5065497;28;20056;-86
2022/09/20 07:07:59;;;;;;;3.92;1.63;;;;;;;;;;5066969;28;20497;-83
2022/09/20 07:10:27;;;;;;;6.78;1.70;;;;;;;;;;5067511;28;20096;-83
2022/09/20 07:12:59;;;;;;;3.65;1.50;;;;;;;;;;5064608;28;20033;-87
2022/09/20 07:15:29;;;;;;;4.53;1.50;;;;;;;;;;5066485;28;20083;-84
2022/09/20 07:17:55;;;;;;;4.20;1.70;;;;;;;;;;5066134;28;20029;-84
2022/09/20 07:20:20;;;;;;;4.00;1.92;;;;;;;;;;5060112;28;20035;-84
2022/09/20 07:22:47;;;;;;;4.18;1.58;;;;;;;;;;5056923;28;20041;-83
2022/09/20 07:25:12;;;;;;;2.67;1.33;;;;;;;;;;5056261;28;20031;-86
2022/09/20 07:27:38;;;;;;;3.08;1.77;;;;;;;;;;5055858;28;20397;-85
2022/09/20 07:30:05;;;;;;;5.30;2.60;;;;;;;;;;5056820;28;20124;-84
2022/09/20 07:32:31;;;;;;;3.55;2.20;;;;;;;;;;5056506;28;20052;-85
2022/09/20 07:34:56;;;;;;;6.60;3.17;;;;;;;;;;5055743;28;20432;-84
2022/09/20 07:37:22;;;;;;;5.55;1.95;;;;;;;;;;5056397;28;20025;-84
2022/09/20 07:39:47;;;;;;;4.43;1.75;;;;;;;;;;5056613;28;20060;-83
2022/09/20 07:42:13;;;;;;;5.07;2.03;;;;;;;;;;5056700;28;20036;-83
2022/09/20 07:44:42;;;;;;;2.78;1.90;;;;;;;;;;5054161;28;20044;-83
2022/09/20 07:47:09;;;;;;;2.63;1.73;;;;;;;;;;5056279;28;20060;-84
2022/09/20 07:49:35;;;;;;;3.97;1.50;;;;;;;;;;5056627;28;20033;-84
2022/09/20 07:52:01;;;;;;;2.72;1.50;;;;;;;;;;5056893;28;20383;-83
2022/09/20 07:54:27;;;;;;;3.42;1.60;;;;;;;;;;5055639;28;20039;-83
2022/09/20 07:56:53;;;;;;;2.53;1.30;;;;;;;;;;5056610;28;20088;-85
2022/09/20 07:59:18;;;;;;;3.47;1.90;;;;;;;;;;5055124;28;20025;-84
2022/09/20 08:01:44;;;;;;;4.25;1.92;;;;;;;;;;5056108;28;20063;-84
2022/09/20 08:04:10;;;;;;;3.90;2.70;;;;;;;;;;5054789;28;20098;-84
2022/09/20 08:06:37;;;;;;;4.40;2.00;;;;;;;;;;5046932;28;20045;-84
2022/09/20 08:09:03;;;;;;;4.50;2.00;;;;;;;;;;5049625;28;20040;-85
2022/09/20 08:11:29;;;;;;;5.22;2.00;;;;;;;;;;5042291;28;20033;-84
2022/09/20 08:13:58;;;;;;;3.22;1.60;;;;;;;;;;5045073;28;20119;-85
2022/09/20 08:16:25;;;;;;;4.03;1.80;;;;;;;;;;5045591;28;20054;-84
2022/09/20 08:18:55;;;;;;;3.90;1.60;;;;;;;;;;5053672;28;20060;-85
2022/09/20 08:21:20;;;;;;;2.22;1.60;;;;;;;;;;5054568;28;20041;-85
2022/09/20 08:23:49;;;;;;;4.28;1.73;;;;;;;;;;5037935;28;20052;-84
2022/09/20 08:26:17;;;;;;;5.38;1.90;;;;;;;;;;5042302;28;20091;-84
2022/09/20 08:28:45;;;;;;;6.22;1.95;;;;;;;;;;5049137;28;20053;-85
2022/09/20 08:31:18;;;;;;;7.38;3.65;;;;;;;;;;5045552;28;20037;-84
2022/09/20 08:33:43;;;;;;;8.70;4.43;;;;;;;;;;5040360;28;20486;-84
2022/09/20 08:36:13;;;;;;;7.13;3.22;;;;;;;;;;5033827;28;20105;-84
2022/09/20 08:38:38;;;;;;;5.85;1.45;;;;;;;;;;5018298;28;20025;-84
2022/09/20 08:41:06;;;;;;;4.10;1.40;;;;;;;;;;5052423;28;20524;-84
2022/09/20 08:43:37;;;;;;;4.32;1.45;;;;;;;;;;5054050;28;20029;-83
2022/09/20 08:46:05;;;;;;;5.38;1.55;;;;;;;;;;5054316;28;20504;-84
2022/09/20 08:48:32;;;;;;;3.00;1.20;;;;;;;;;;5055200;28;20028;-83
2022/09/20 08:51:05;;;;;;;3.50;1.60;;;;;;;;;;5037408;28;20044;-83
2022/09/20 08:53:32;;;;;;;4.47;1.30;;;;;;;;;;5055810;28;20067;-84
2022/09/20 08:55:58;;;;;;;3.67;1.30;;;;;;;;;;5054521;28;20044;-84
2022/09/20 08:58:26;;;;;;;4.43;1.30;;;;;;;;;;5055651;28;20218;-84
2022/09/20 09:00:52;;;;;;;4.07;1.50;;;;;;;;;;5054043;28;20052;-83
2022/09/20 09:03:18;;;;;;;2.22;1.30;;;;;;;;;;5053646;28;20124;-84
2022/09/20 09:05:54;;;;;;;3.47;1.23;;;;;;;;;;5036202;28;20364;-83
2022/09/20 09:08:25;;;;;;;3.13;1.55;;;;;;;;;;5054194;28;20033;-83
2022/09/20 09:10:55;;;;;;;3.03;1.23;;;;;;;;;;5052983;28;20048;-83
2022/09/20 09:13:47;;;;;;;3.03;1.25;;;;;;;;;;5052825;28;20055;-83
2022/09/20 09:16:15;;;;;;;3.85;1.30;;;;;;;;;;5051752;28;20033;-84
2022/09/20 09:18:43;;;;;;;5.85;1.38;;;;;;;;;;5051930;28;20048;-83
2022/09/20 09:21:27;;;;;;;4.65;1.30;;;;;;;;;;5052862;28;20040;-83
2022/09/20 09:24:08;;;;;;;5.82;1.45;;;;;;;;;;5053963;28;20041;-83
2022/09/20 09:26:36;;;;;;;4.38;1.40;;;;;;;;;;5036224;28;20082;-85
2022/09/20 09:29:22;;;;;;;3.92;1.50;;;;;;;;;;5054682;28;20056;-83
2022/09/20 09:31:50;;;;;;;3.55;1.30;;;;;;;;;;5035221;28;20545;-83
2022/09/20 09:34:30;;;;;;;2.53;1.40;;;;;;;;;;5042644;28;20462;-83
2022/09/20 09:36:56;;;;;;;4.35;1.90;;;;;;;;;;5026816;28;20389;-83
2022/09/20 09:39:26;;;;;;;2.17;1.38;;;;;;;;;;5050693;28;20029;-83
2022/09/20 09:41:52;;;;;;;5.75;1.60;;;;;;;;;;5054202;28;20040;-83
2022/09/20 09:44:18;;;;;;;3.88;1.75;;;;;;;;;;5053899;28;20021;-83
2022/09/20 09:46:44;;;;;;;5.10;1.88;;;;;;;;;;5055689;28;20110;-83
2022/09/20 09:49:21;;;;;;;4.22;1.40;;;;;;;;;;5056058;28;20516;-83
2022/09/20 09:52:04;;;;;;;4.03;1.50;;;;;;;;;;5054997;28;20455;-84
2022/09/20 09:54:34;;;;;;;6.88;1.40;;;;;;;;;;5053982;28;20477;-83
2022/09/20 09:57:24;;;;;;;3.70;1.50;;;;;;;;;;5055735;28;20478;-82
2022/09/20 10:00:10;;;;;;;6.35;1.70;;;;;;;;;;5039058;28;20045;-83
2022/09/20 10:02:39;;;;;;;3.97;1.50;;;;;;;;;;5035695;28;20033;-84
2022/09/20 10:05:31;;;;;;;4.30;1.60;;;;;;;;;;5035216;28;20045;-83
2022/09/20 10:08:09;;;;;;;4.18;1.90;;;;;;;;;;5035212;28;20051;-83
2022/09/20 10:10:59;;;;;;;3.22;1.40;;;;;;;;;;5034828;28;20042;-86
2022/09/20 10:13:37;;;;;;;3.33;2.30;;;;;;;;;;5035931;28;20079;-84
2022/09/20 10:16:40;;;;;;;2.45;1.45;;;;;;;;;;5034299;28;20482;-83
2022/09/20 10:19:26;;;;;;;1.40;1.00;;;;;;;;;;5034783;28;20064;-83
2022/09/20 10:22:18;;;;;;;3.22;0.90;;;;;;;;;;5036181;28;20033;-83
2022/09/20 10:25:26;;;;;;;3.30;0.98;;;;;;;;;;5034262;28;20108;-83
2022/09/20 10:28:00;;;;;;;2.92;0.90;;;;;;;;;;5033522;28;20052;-82
2022/09/20 10:30:35;;;;;;;1.80;0.90;;;;;;;;;;5034895;28;20041;-83
2022/09/20 10:33:25;;;;;;;0.90;0.80;;;;;;;;;;5033868;28;20152;-83
2022/09/20 10:35:54;;;;;;;3.13;0.88;;;;;;;;;;5045259;28;20063;-82
2022/09/20 10:38:27;;;;;;;1.70;0.90;;;;;;;;;;5053299;28;20029;-83
2022/09/20 10:44:17;;;;;;;3.28;1.60;;;;;;;;;;5052844;28;20101;-83
2022/09/20 10:47:07;;;;;;;5.32;1.52;;;;;;;;;;5056338;28;20474;-85
2022/09/20 10:49:38;;;;;;;14.15;5.63;;;;;;;;;;5034100;28;20030;-84
2022/09/20 10:52:49;;;;;;;9.35;4.07;;;;;;;;;;5043355;28;20132;-84
2022/09/20 10:55:24;;;;;;;6.95;2.90;;;;;;;;;;5042222;28;20040;-86
2022/09/20 10:57:52;;;;;;;5.70;2.72;;;;;;;;;;5048084;28;20106;-86
2022/09/20 11:00:20;;;;;;;4.43;1.88;;;;;;;;;;5050601;28;20382;-90
2022/09/20 11:03:01;;;;;;;4.43;2.60;;;;;;;;;;5040380;28;20195;-85
2022/09/20 11:05:50;;;;;;;3.40;1.75;;;;;;;;;;5038197;28;20049;-85
2022/09/20 11:08:21;;;;;;;3.47;1.30;;;;;;;;;;5046503;28;20694;-86
2022/09/20 11:10:59;;;;;;;2.63;1.17;;;;;;;;;;5054272;28;20036;-85
2022/09/20 11:13:44;;;;;;;11.05;7.88;;;;;;;;;;5051490;28;20037;-87
2022/09/20 11:16:32;;;;;;;4.25;2.70;;;;;;;;;;5044428;28;20022;-85
2022/09/20 11:19:22;;;;;;;1.65;1.20;;;;;;;;;;5045854;28;20029;-84
2022/09/20 11:21:50;;;;;;;2.40;1.52;;;;;;;;;;5039629;28;20224;-85
2022/09/20 11:24:34;;;;;;;3.22;1.40;;;;;;;;;;5035506;28;20037;-84
2022/09/20 11:27:28;;;;;;;2.08;1.00;;;;;;;;;;5036169;28;20040;-84
2022/09/20 11:30:07;;;;;;;2.75;1.45;;;;;;;;;;5036062;28;20037;-84
2022/09/20 11:32:47;;;;;;;4.15;1.23;;;;;;;;;;5037862;28;20505;-84
2022/09/20 11:35:32;;;;;;;2.42;1.48;;;;;;;;;;5051699;28;20033;-85
2022/09/20 11:38:12;;;;;;;1.88;1.20;;;;;;;;;;5038016;28;20048;-85
2022/09/20 11:40:59;;;;;;;4.15;1.70;;;;;;;;;;5036134;28;20037;-84
2022/09/20 11:43:29;;;;;;;8.23;3.65;;;;;;;;;;5033655;28;20090;-84
2022/09/20 11:46:02;;;;;;;5.50;2.90;;;;;;;;;;5034892;28;20033;-84
2022/09/20 11:48:34;;;;;;;9.88;4.78;;;;;;;;;;5041470;28;20524;-84
2022/09/20 11:51:17;;;;;;;4.20;1.83;;;;;;;;;;5052103;28;20041;-84
2022/09/20 11:54:04;;;;;;;9.85;4.45;;;;;;;;;;5043923;28;20079;-84
2022/09/20 11:56:33;;;;;;;3.92;1.50;;;;;;;;;;5044534;28;20021;-84
2022/09/20 11:59:21;;;;;;;7.65;4.38;;;;;;;;;;5042071;28;20037;-88
2022/09/20 12:01:47;;;;;;;6.82;2.60;;;;;;;;;;5043512;28;20029;-83
2022/09/20 12:04:23;;;;;;;4.90;1.70;;;;;;;;;;5041830;28;20447;-83
2022/09/20 12:07:04;;;;;;;4.03;1.70;;;;;;;;;;5043191;28;20494;-82
2022/09/20 12:09:36;;;;;;;9.18;3.80;;;;;;;;;;5049290;28;20455;-84
2022/09/20 12:12:23;;;;;;;5.03;2.53;;;;;;;;;;5051568;28;20037;-84
2022/09/20 12:14:54;;;;;;;3.47;2.10;;;;;;;;;;5037819;28;20029;-84
2022/09/20 12:17:45;;;;;;;3.85;1.90;;;;;;;;;;5041537;28;20025;-84
2022/09/20 12:20:38;;;;;;;4.35;2.00;;;;;;;;;;5043470;28;20489;-84
2022/09/20 12:23:41;;;;;;;3.15;1.65;;;;;;;;;;5034937;28;20076;-84
2022/09/20 12:26:09;;;;;;;4.15;2.20;;;;;;;;;;5032823;28;20041;-85
2022/09/20 12:28:41;;;;;;;7.78;3.10;;;;;;;;;;5039888;28;20060;-83
2022/09/20 12:31:21;;;;;;;9.52;3.70;;;;;;;;;;5035516;28;20037;-85
2022/09/20 12:34:08;;;;;;;8.52;3.80;;;;;;;;;;5043550;28;20029;-84
2022/09/20 12:36:41;;;;;;;14.95;4.85;;;;;;;;;;5036935;28;20662;-83
2022/09/20 12:39:08;;;;;;;13.15;5.32;;;;;;;;;;5033602;28;20044;-84
2022/09/20 12:41:44;;;;;;;7.75;3.70;;;;;;;;;;5033668;28;20039;-84
2022/09/20 12:44:34;;;;;;;5.18;2.70;;;;;;;;;;5015516;28;20505;-84
2022/09/20 12:47:09;;;;;;;3.70;1.83;;;;;;;;;;5034976;28;20041;-83
2022/09/20 12:52:59;;;;;;;7.65;3.58;;;;;;;;;;5035674;28;20030;-86
2022/09/20 12:55:25;;;;;;;8.98;4.05;;;;;;;;;;5032400;28;20041;-86
2022/09/20 12:58:14;;;;;;;10.52;4.25;;;;;;;;;;5035045;28;20387;-85
2022/09/20 13:00:44;;;;;;;5.93;2.63;;;;;;;;;;5021254;28;20046;-85
2022/09/20 13:03:33;;;;;;;5.72;2.92;;;;;;;;;;5034368;28;20033;-85
2022/09/20 13:06:05;;;;;;;6.20;3.03;;;;;;;;;;5035146;28;20037;-85
2022/09/20 13:08:41;;;;;;;5.93;2.83;;;;;;;;;;5037586;28;20387;-86
2022/09/20 13:11:18;;;;;;;6.65;2.78;;;;;;;;;;5036566;28;20037;-86
2022/09/20 13:14:00;;;;;;;6.40;2.63;;;;;;;;;;5055787;28;20090;-86
2022/09/20 13:16:36;;;;;;;3.88;1.95;;;;;;;;;;5056754;28;20025;-86
2022/09/20 13:19:16;;;;;;;5.13;2.08;;;;;;;;;;5055640;28;20064;-85
2022/09/20 13:21:54;;;;;;;3.38;2.08;;;;;;;;;;5057251;28;20120;-86
2022/09/20 13:24:19;;;;;;;7.38;2.30;;;;;;;;;;5057460;28;20397;-85
2022/09/20 13:26:47;;;;;;;2.42;1.80;;;;;;;;;;5060911;28;20037;-87
2022/09/20 13:29:32;;;;;;;4.22;1.90;;;;;;;;;;5061053;28;20061;-87
2022/09/20 13:32:31;;;;;;;4.32;2.40;;;;;;;;;;5061857;28;20037;-87
2022/09/20 13:35:08;;;;;;;3.83;2.15;;;;;;;;;;5060566;28;20032;-87
2022/09/20 13:37:44;;;;;;;4.88;2.00;;;;;;;;;;5062650;28;20044;-87
2022/09/20 13:40:20;;;;;;;5.45;1.80;;;;;;;;;;5061383;28;20029;-86
2022/09/20 13:42:48;;;;;;;2.92;2.00;;;;;;;;;;5059323;28;20071;-85
2022/09/20 13:45:15;;;;;;;3.55;1.58;;;;;;;;;;5059601;28;20048;-86
2022/09/20 13:47:43;;;;;;;7.50;2.35;;;;;;;;;;5061910;28;20109;-85
2022/09/20 13:50:21;;;;;;;3.95;2.17;;;;;;;;;;5061903;28;20032;-85
2022/09/20 13:52:58;;;;;;;3.67;2.10;;;;;;;;;;5061563;28;20459;-86
2022/09/20 13:55:43;;;;;;;4.57;1.75;;;;;;;;;;5063129;28;20041;-87
2022/09/20 13:58:22;;;;;;;3.47;1.80;;;;;;;;;;5060258;28;20041;-87
2022/09/20 14:00:55;;;;;;;4.30;1.50;;;;;;;;;;5059783;28;20037;-87
2022/09/20 14:03:22;;;;;;;6.75;2.13;;;;;;;;;;5059543;28;20063;-86
2022/09/20 14:05:50;;;;;;;5.15;2.40;;;;;;;;;;5056214;28;20041;-87
2022/09/20 14:08:36;;;;;;;4.55;2.30;;;;;;;;;;5057154;28;20021;-87
2022/09/20 14:11:03;;;;;;;3.55;1.90;;;;;;;;;;5056980;28;20041;-87
2022/09/20 14:13:32;;;;;;;6.03;2.13;;;;;;;;;;5056344;28;20033;-86
2022/09/20 14:15:57;;;;;;;4.20;1.70;;;;;;;;;;5056099;28;20045;-86
2022/09/20 14:18:23;;;;;;;5.57;1.83;;;;;;;;;;5058168;28;20044;-87
2022/09/20 14:20:49;;;;;;;2.47;1.70;;;;;;;;;;5058583;28;20134;-86
2022/09/20 14:23:26;;;;;;;8.05;4.43;;;;;;;;;;5058610;28;20532;-85
2022/09/20 14:26:21;;;;;;;5.90;2.95;;;;;;;;;;5056691;28;20055;-85
2022/09/20 14:28:47;;;;;;;4.50;1.85;;;;;;;;;;5056953;28;20033;-86
2022/09/20 14:31:27;;;;;;;5.57;2.40;;;;;;;;;;5060106;28;20059;-86
2022/09/20 14:33:56;;;;;;;6.60;2.50;;;;;;;;;;5057902;28;20094;-88
2022/09/20 14:36:25;;;;;;;7.13;2.67;;;;;;;;;;5052915;28;20032;-86
2022/09/20 14:39:03;;;;;;;3.60;2.40;;;;;;;;;;5048414;28;20048;-87
2022/09/20 14:41:37;;;;;;;5.60;2.20;;;;;;;;;;5025294;28;20037;-86
2022/09/20 14:44:02;;;;;;;;;;;;;;;;;;5042451;28;20029;-86
2022/09/20 14:46:35;;;;;;;3.97;2.30;;;;;;;;;;5041884;28;19913;-86
2022/09/20 14:49:19;;;;;;;4.57;1.98;;;;;;;;;;5039899;28;20029;-84
2022/09/20 14:51:45;;;;;;;4.05;1.98;;;;;;;;;;5041336;28;20136;-85
2022/09/20 14:54:11;;;;;;;4.07;1.67;;;;;;;;;;5040233;28;20078;-85
2022/09/20 14:56:39;;;;;;;4.00;1.50;;;;;;;;;;5041500;28;20065;-85
2022/09/20 14:59:12;;;;;;;3.33;1.70;;;;;;;;;;5043461;28;20055;-86
2022/09/20 15:01:59;;;;;;;2.35;1.60;;;;;;;;;;5045991;28;20166;-86
2022/09/20 15:04:27;;;;;;;3.38;1.60;;;;;;;;;;5048592;28;20133;-86
2022/09/20 15:06:53;;;;;;;1.77;1.40;;;;;;;;;;5054690;28;20036;-86
2022/09/20 15:09:20;;;;;;;4.43;1.70;;;;;;;;;;5052316;28;20040;-86
2022/09/20 15:12:11;;;;;;;3.03;1.70;;;;;;;;;;5047777;28;20091;-86
2022/09/20 15:14:39;;;;;;;4.05;1.70;;;;;;;;;;5047590;28;20034;-86
2022/09/20 15:17:05;;;;;;;5.55;1.98;;;;;;;;;;5045086;28;20116;-85
2022/09/20 15:19:30;;;;;;;3.40;1.48;;;;;;;;;;5040990;28;20138;-86
2022/09/20 15:21:56;;;;;;;3.28;1.48;;;;;;;;;;5047302;28;20119;-86
2022/09/20 15:24:21;;;;;;;4.10;1.50;;;;;;;;;;5059205;28;20033;-86
2022/09/20 15:26:49;;;;;;;2.65;1.40;;;;;;;;;;5042858;28;20033;-86
2022/09/20 15:29:18;;;;;;;3.33;1.50;;;;;;;;;;5042009;28;20045;-86
2022/09/20 15:31:47;;;;;;;3.97;1.60;;;;;;;;;;5039761;28;20069;-84
2022/09/20 15:34:14;;;;;;;3.83;1.70;;;;;;;;;;5041450;28;20041;-86
2022/09/20 15:36:40;;;;;;;2.45;1.55;;;;;;;;;;5041929;28;20037;-86
2022/09/20 15:39:07;;;;;;;5.22;1.45;;;;;;;;;;5041760;28;20051;-85
2022/09/20 15:41:34;;;;;;;3.50;1.88;;;;;;;;;;5045037;28;20029;-83
2022/09/20 15:44:03;;;;;;;5.32;2.10;;;;;;;;;;5023256;28;20501;-84
2022/09/20 15:46:29;;;;;;;4.35;2.08;;;;;;;;;;5039227;28;20417;-86
2022/09/20 15:48:58;;;;;;;4.88;1.70;;;;;;;;;;5046280;28;20532;-84
2022/09/20 15:51:23;;;;;;;5.68;1.77;;;;;;;;;;5047448;28;20482;-83